createdAt,value
2023-04-22T00:00:32.052Z,88
2023-04-22T00:01:38.313Z,88
2023-04-22T00:02:44.586Z,88
2023-04-22T00:03:50.844Z,88
2023-04-22T00:04:56.153Z,88
2023-04-22T00:06:01.436Z,88
2023-04-22T00:07:06.745Z,88
2023-04-22T00:08:12.023Z,88
2023-04-22T00:09:18.298Z,88.5
2023-04-22T00:10:24.581Z,88
2023-04-22T00:11:30.837Z,88
2023-04-22T00:12:37.121Z,88
2023-04-22T00:13:43.389Z,88
2023-04-22T00:14:49.663Z,88
2023-04-22T00:15:55.933Z,88
2023-04-22T00:17:02.193Z,88
2023-04-22T00:18:08.470Z,88.5
2023-04-22T00:19:14.737Z,88.5
2023-04-22T00:20:21.026Z,88
2023-04-22T00:21:27.284Z,88
2023-04-22T00:22:32.593Z,88.5
2023-04-22T00:23:38.872Z,88.5
2023-04-22T00:24:45.121Z,88.5
2023-04-22T00:25:51.396Z,88.5
2023-04-22T00:26:57.668Z,88.5
2023-04-22T00:28:03.937Z,88.5
2023-04-22T00:29:10.218Z,89
2023-04-22T00:30:15.507Z,89
2023-04-22T00:31:20.803Z,89
2023-04-22T00:32:26.088Z,89
2023-04-22T00:33:31.394Z,89
2023-04-22T00:34:37.653Z,89
2023-04-22T00:35:43.957Z,89
2023-04-22T00:36:50.197Z,89
2023-04-22T00:37:56.469Z,89
2023-04-22T00:39:02.738Z,89
2023-04-22T00:40:09.015Z,89.5
2023-04-22T00:41:15.325Z,89.5
2023-04-22T00:42:21.557Z,89.5
2023-04-22T00:43:27.830Z,89.5
2023-04-22T00:44:34.101Z,89.5
2023-04-22T00:45:40.372Z,89.5
2023-04-22T00:46:46.642Z,89.5
2023-04-22T00:47:51.933Z,89
2023-04-22T00:48:58.204Z,89
2023-04-22T00:50:04.512Z,89
2023-04-22T00:51:10.750Z,89
2023-04-22T00:52:17.030Z,89
2023-04-22T00:53:23.273Z,89
2023-04-22T00:54:29.560Z,89
2023-04-22T00:55:34.856Z,89
2023-04-22T00:56:40.146Z,89
2023-04-22T00:57:46.412Z,89
2023-04-22T00:58:51.710Z,89
2023-04-22T00:59:57.021Z,89
2023-04-22T01:01:03.280Z,89
2023-04-22T01:02:09.545Z,89
2023-04-22T01:03:15.834Z,89
2023-04-22T01:04:22.099Z,89
2023-04-22T01:05:28.365Z,89
2023-04-22T01:06:34.637Z,89
2023-04-22T01:07:40.906Z,89
2023-04-22T01:08:47.182Z,89
2023-04-22T01:09:53.454Z,89.5
2023-04-22T01:10:59.762Z,89.5
2023-04-22T01:12:05.989Z,89.5
2023-04-22T01:13:12.260Z,90
2023-04-22T01:14:17.552Z,90
2023-04-22T01:15:23.822Z,90
2023-04-22T01:16:30.099Z,90
2023-04-22T01:17:36.381Z,90
2023-04-22T01:18:42.665Z,89.5
2023-04-22T01:19:48.908Z,89.5
2023-04-22T01:20:55.180Z,90
2023-04-22T01:22:00.489Z,90.5
2023-04-22T01:23:05.786Z,90.5
2023-04-22T01:24:11.068Z,90
2023-04-22T01:25:16.350Z,90
2023-04-22T01:26:22.633Z,90.5
2023-04-22T01:27:28.900Z,90.5
2023-04-22T01:28:35.173Z,90.5
2023-04-22T01:29:41.614Z,91
2023-04-22T01:30:47.775Z,91
2023-04-22T01:31:53.992Z,90.5
2023-04-22T01:33:00.269Z,90.5
2023-04-22T01:34:06.538Z,91
2023-04-22T01:35:12.810Z,91
2023-04-22T01:36:19.086Z,91
2023-04-22T01:37:25.350Z,91
2023-04-22T01:38:31.632Z,91
2023-04-22T01:39:36.902Z,91
2023-04-22T01:40:43.172Z,90.5
2023-04-22T01:41:49.455Z,90.5
2023-04-22T01:42:55.728Z,90.5
2023-04-22T01:44:02.011Z,90.5
2023-04-22T01:45:08.253Z,91
2023-04-22T01:46:14.555Z,91
2023-04-22T01:47:19.842Z,90.5
2023-04-22T01:48:25.129Z,90.5
2023-04-22T01:49:31.422Z,90.5
2023-04-22T01:50:37.672Z,90.5
2023-04-22T01:51:43.948Z,90.5
2023-04-22T01:52:50.216Z,90.5
2023-04-22T01:53:56.492Z,90.5
2023-04-22T01:55:02.764Z,90.5
2023-04-22T01:56:09.046Z,90.5
2023-04-22T01:57:15.304Z,90.5
2023-04-22T01:58:21.588Z,91
2023-04-22T01:59:27.890Z,91
2023-04-22T02:00:34.116Z,91
2023-04-22T02:01:40.392Z,91
2023-04-22T02:02:45.673Z,91
2023-04-22T02:03:51.943Z,90.5
2023-04-22T02:04:58.228Z,90.5
2023-04-22T02:06:04.494Z,90.5
2023-04-22T02:07:10.770Z,90.5
2023-04-22T02:08:17.033Z,91
2023-04-22T02:09:23.309Z,91
2023-04-22T02:10:28.604Z,91
2023-04-22T02:11:33.896Z,91
2023-04-22T02:12:39.186Z,91
2023-04-22T02:13:44.483Z,91
2023-04-22T02:14:50.751Z,91
2023-04-22T02:15:57.032Z,91.5
2023-04-22T02:17:03.300Z,91.5
2023-04-22T02:18:09.584Z,91.5
2023-04-22T02:19:15.835Z,91
2023-04-22T02:20:22.127Z,91
2023-04-22T02:21:28.379Z,92
2023-04-22T02:22:34.650Z,92
2023-04-22T02:23:40.925Z,92
2023-04-22T02:24:47.197Z,92
2023-04-22T02:25:53.473Z,92
2023-04-22T02:26:59.748Z,91.5
2023-04-22T02:28:05.029Z,91.5
2023-04-22T02:29:11.319Z,92
2023-04-22T02:30:17.570Z,92
2023-04-22T02:31:23.840Z,92
2023-04-22T02:32:30.120Z,92
2023-04-22T02:33:36.396Z,92
2023-04-22T02:34:42.659Z,92
2023-04-22T02:35:47.968Z,92
2023-04-22T02:36:53.255Z,92
2023-04-22T02:37:58.550Z,92
2023-04-22T02:39:03.829Z,92
2023-04-22T02:40:10.094Z,92
2023-04-22T02:41:16.383Z,92
2023-04-22T02:42:22.681Z,92
2023-04-22T02:43:28.973Z,92
2023-04-22T02:44:35.193Z,92
2023-04-22T02:45:41.463Z,92
2023-04-22T02:46:47.736Z,92
2023-04-22T02:47:54.019Z,92
2023-04-22T02:49:00.266Z,92
2023-04-22T02:50:06.556Z,92.5
2023-04-22T02:51:12.851Z,92
2023-04-22T02:52:19.101Z,91.5
2023-04-22T02:53:24.388Z,91.5
2023-04-22T02:54:30.661Z,91.5
2023-04-22T02:55:36.940Z,92
2023-04-22T02:56:43.205Z,92
2023-04-22T02:57:49.466Z,92
2023-04-22T02:58:55.744Z,91.5
2023-04-22T03:00:02.020Z,91.5
2023-04-22T03:01:07.314Z,91.5
2023-04-22T03:02:12.603Z,91.5
2023-04-22T03:03:17.925Z,91.5
2023-04-22T03:04:23.189Z,91.5
2023-04-22T03:05:29.459Z,91.5
2023-04-22T03:06:35.733Z,91.5
2023-04-22T03:07:42.007Z,91.5
2023-04-22T03:08:48.280Z,91.5
2023-04-22T03:09:54.551Z,91.5
2023-04-22T03:11:00.814Z,91
2023-04-22T03:12:07.089Z,91.5
2023-04-22T03:13:13.364Z,91.5
2023-04-22T03:14:19.632Z,91.5
2023-04-22T03:15:25.906Z,91.5
2023-04-22T03:16:32.179Z,92
2023-04-22T03:17:38.449Z,92
2023-04-22T03:18:43.773Z,92
2023-04-22T03:19:50.039Z,92
2023-04-22T03:20:56.281Z,92
2023-04-22T03:22:02.544Z,91.5
2023-04-22T03:23:08.839Z,91.5
2023-04-22T03:24:15.100Z,91.5
2023-04-22T03:25:21.380Z,91.5
2023-04-22T03:26:26.667Z,91.5
2023-04-22T03:27:31.959Z,91.5
2023-04-22T03:28:37.258Z,92
2023-04-22T03:29:42.547Z,92
2023-04-22T03:30:48.813Z,92
2023-04-22T03:31:55.082Z,91.5
2023-04-22T03:33:01.359Z,91.5
2023-04-22T03:34:06.654Z,91.5
2023-04-22T03:35:12.925Z,91.5
2023-04-22T03:36:19.204Z,91.5
2023-04-22T03:37:25.468Z,92
2023-04-22T03:38:31.741Z,92
2023-04-22T03:39:38.011Z,92
2023-04-22T03:40:44.316Z,91.5
2023-04-22T03:41:50.563Z,91.5
2023-04-22T03:42:56.827Z,91.5
2023-04-22T03:44:03.098Z,91.5
2023-04-22T03:45:09.362Z,91.5
2023-04-22T03:46:15.660Z,91.5
2023-04-22T03:47:21.928Z,91.5
2023-04-22T03:48:27.208Z,91
2023-04-22T03:49:33.485Z,91.5
2023-04-22T03:50:39.765Z,92
2023-04-22T03:51:45.057Z,92
2023-04-22T03:52:50.337Z,91.5
2023-04-22T03:53:55.636Z,91.5
2023-04-22T03:55:00.938Z,91.5
2023-04-22T03:56:07.204Z,91.5
2023-04-22T03:57:13.483Z,91.5
2023-04-22T03:58:19.739Z,91.5
2023-04-22T03:59:25.999Z,91.5
2023-04-22T04:00:32.282Z,92
2023-04-22T04:01:38.543Z,92
2023-04-22T04:02:44.823Z,92
2023-04-22T04:03:51.089Z,91.5
2023-04-22T04:04:57.380Z,91.5
2023-04-22T04:06:03.653Z,91.5
2023-04-22T04:07:09.912Z,91.5
2023-04-22T04:08:16.184Z,91
2023-04-22T04:09:21.467Z,91.5
2023-04-22T04:10:27.747Z,91
2023-04-22T04:11:34.015Z,91
2023-04-22T04:12:40.284Z,91.5
2023-04-22T04:13:46.569Z,91.5
2023-04-22T04:14:52.838Z,91.5
2023-04-22T04:15:59.104Z,91.5
2023-04-22T04:17:04.395Z,91.5
2023-04-22T04:18:09.697Z,91.5
2023-04-22T04:19:14.990Z,91.5
2023-04-22T04:20:20.406Z,91.5
2023-04-22T04:21:26.549Z,91.5
2023-04-22T04:22:32.836Z,91.5
2023-04-22T04:23:39.085Z,91.5
2023-04-22T04:24:45.368Z,92
2023-04-22T04:25:51.629Z,92
2023-04-22T04:26:57.906Z,92
2023-04-22T04:28:04.184Z,92
2023-04-22T04:29:10.449Z,92
2023-04-22T04:30:16.720Z,92
2023-04-22T04:31:22.990Z,92
2023-04-22T04:32:29.271Z,92
2023-04-22T04:33:35.532Z,92
2023-04-22T04:34:40.816Z,92
2023-04-22T04:35:47.096Z,92
2023-04-22T04:36:53.372Z,92.5
2023-04-22T04:37:59.638Z,92.5
2023-04-22T04:39:05.909Z,92.5
2023-04-22T04:40:12.195Z,92.5
2023-04-22T04:41:18.455Z,92.5
2023-04-22T04:42:23.752Z,93
2023-04-22T04:43:29.053Z,93
2023-04-22T04:44:34.346Z,93
2023-04-22T04:45:39.619Z,93
2023-04-22T04:46:45.894Z,93
2023-04-22T04:47:52.202Z,93
2023-04-22T04:48:58.438Z,93
2023-04-22T04:50:04.708Z,93
2023-04-22T04:51:10.984Z,93
2023-04-22T04:52:17.256Z,93
2023-04-22T04:53:23.540Z,93
2023-04-22T04:54:29.811Z,93
2023-04-22T04:55:36.070Z,92.5
2023-04-22T04:56:42.342Z,92.5
2023-04-22T04:57:48.613Z,92.5
2023-04-22T04:58:54.889Z,92.5
2023-04-22T05:00:00.184Z,92.5
2023-04-22T05:01:06.429Z,92
2023-04-22T05:02:12.729Z,92
2023-04-22T05:03:18.992Z,92
2023-04-22T05:04:25.285Z,92
2023-04-22T05:05:31.536Z,92
2023-04-22T05:06:37.808Z,92
2023-04-22T05:07:43.114Z,92
2023-04-22T05:08:48.398Z,92
2023-04-22T05:09:54.668Z,92
2023-04-22T05:11:00.968Z,92
2023-04-22T05:12:06.241Z,92
2023-04-22T05:13:11.534Z,92
2023-04-22T05:14:17.856Z,91.5
2023-04-22T05:15:24.068Z,91.5
2023-04-22T05:16:30.397Z,91.5
2023-04-22T05:17:36.614Z,91.5
2023-04-22T05:18:42.890Z,91.5
2023-04-22T05:19:49.174Z,91.5
2023-04-22T05:20:55.436Z,92
2023-04-22T05:22:01.705Z,92
2023-04-22T05:23:07.977Z,91.5
2023-04-22T05:24:14.259Z,91.5
2023-04-22T05:25:20.513Z,91.5
2023-04-22T05:26:26.792Z,91.5
2023-04-22T05:27:32.072Z,91.5
2023-04-22T05:28:38.356Z,91.5
2023-04-22T05:29:44.622Z,91.5
2023-04-22T05:30:50.906Z,91.5
2023-04-22T05:31:57.163Z,91.5
2023-04-22T05:33:03.442Z,91.5
2023-04-22T05:34:09.715Z,91.5
2023-04-22T05:35:15.018Z,91
2023-04-22T05:36:20.300Z,91
2023-04-22T05:37:25.594Z,91
2023-04-22T05:38:30.881Z,91
2023-04-22T05:39:37.153Z,91
2023-04-22T05:40:43.506Z,90.5
2023-04-22T05:41:49.697Z,90.5
2023-04-22T05:42:55.985Z,90.5
2023-04-22T05:44:02.244Z,91
2023-04-22T05:45:08.518Z,90.5
2023-04-22T05:46:14.785Z,90.5
2023-04-22T05:47:21.095Z,90.5
2023-04-22T05:48:27.329Z,90.5
2023-04-22T05:49:33.597Z,90
2023-04-22T05:50:39.959Z,90
2023-04-22T05:51:46.151Z,90.5
2023-04-22T05:52:51.424Z,90
2023-04-22T05:53:57.698Z,90
2023-04-22T05:55:03.974Z,90
2023-04-22T05:56:10.294Z,90
2023-04-22T05:57:16.515Z,89.5
2023-04-22T05:58:22.785Z,89.5
2023-04-22T05:59:29.178Z,89.5
2023-04-22T06:00:34.358Z,90
2023-04-22T06:01:39.652Z,90
2023-04-22T06:02:44.959Z,89.5
2023-04-22T06:03:50.237Z,89.5
2023-04-22T06:04:56.497Z,89.5
2023-04-22T06:06:02.774Z,89
2023-04-22T06:07:09.047Z,89
2023-04-22T06:08:15.325Z,89
2023-04-22T06:09:21.656Z,89
2023-04-22T06:10:27.952Z,88.5
2023-04-22T06:11:34.321Z,88.5
2023-04-22T06:12:40.580Z,88.5
2023-04-22T06:13:46.714Z,88
2023-04-22T06:14:53.043Z,88
2023-04-22T06:15:59.253Z,88
2023-04-22T06:17:05.710Z,88
2023-04-22T06:18:10.829Z,88
2023-04-22T06:19:17.228Z,87.5
2023-04-22T06:20:23.519Z,87.5
2023-04-22T06:21:29.608Z,87
2023-04-22T06:22:36.072Z,87
2023-04-22T06:23:42.330Z,87
2023-04-22T06:24:48.422Z,86.5
2023-04-22T06:25:53.898Z,86.5
2023-04-22T06:26:59.144Z,86.5
2023-04-22T06:28:04.441Z,86.5
2023-04-22T06:29:09.752Z,87
2023-04-22T06:30:16.086Z,86.5
2023-04-22T06:31:22.141Z,86
2023-04-22T06:32:28.494Z,86
2023-04-22T06:33:34.877Z,85.5
2023-04-22T06:34:41.001Z,85.5
2023-04-22T06:35:47.405Z,85.5
2023-04-22T06:36:53.489Z,85.5
2023-04-22T06:37:59.933Z,85.5
2023-04-22T06:39:06.237Z,85
2023-04-22T06:40:12.458Z,85
2023-04-22T06:41:18.769Z,84.5
2023-04-22T06:42:24.852Z,84
2023-04-22T06:43:30.422Z,84
2023-04-22T06:44:36.398Z,84
2023-04-22T06:45:42.863Z,84
2023-04-22T06:46:49.130Z,84
2023-04-22T06:47:55.430Z,84
2023-04-22T06:49:01.658Z,84.5
2023-04-22T06:50:07.786Z,84
2023-04-22T06:51:13.068Z,84
2023-04-22T06:52:18.503Z,84.5
2023-04-22T06:53:23.660Z,84.5
2023-04-22T06:54:29.161Z,84.5
2023-04-22T06:55:35.206Z,84.5
2023-04-22T06:56:41.663Z,84
2023-04-22T06:57:47.943Z,83.5
2023-04-22T06:58:54.018Z,83.5
2023-04-22T07:00:00.367Z,83.5
2023-04-22T07:01:06.739Z,83
2023-04-22T07:02:13.020Z,83
2023-04-22T07:03:19.263Z,83
2023-04-22T07:04:25.527Z,83
2023-04-22T07:05:31.819Z,83.5
2023-04-22T07:06:37.956Z,83
2023-04-22T07:07:44.251Z,83
2023-04-22T07:08:49.522Z,83
2023-04-22T07:09:55.819Z,83
2023-04-22T07:11:02.125Z,83
2023-04-22T07:12:08.380Z,83
2023-04-22T07:13:14.653Z,83
2023-04-22T07:14:20.885Z,83
2023-04-22T07:15:26.266Z,83
2023-04-22T07:16:31.629Z,83.5
2023-04-22T07:17:36.744Z,83.5
2023-04-22T07:18:42.124Z,83.5
2023-04-22T07:19:47.313Z,83
2023-04-22T07:20:53.646Z,83
2023-04-22T07:21:59.929Z,83
2023-04-22T07:23:06.139Z,83
2023-04-22T07:24:12.516Z,83
2023-04-22T07:25:18.722Z,82.5
2023-04-22T07:26:24.968Z,82
2023-04-22T07:27:31.286Z,82
2023-04-22T07:28:37.556Z,81.5
2023-04-22T07:29:43.837Z,80.5
2023-04-22T07:30:50.159Z,81
2023-04-22T07:31:56.487Z,80.5
2023-04-22T07:33:02.582Z,81
2023-04-22T07:34:08.035Z,80.5
2023-04-22T07:35:14.226Z,80
2023-04-22T07:36:20.456Z,79
2023-04-22T07:37:26.693Z,79
2023-04-22T07:38:32.990Z,77.5
2023-04-22T07:39:39.249Z,78
2023-04-22T07:40:45.644Z,79.5
2023-04-22T07:41:50.812Z,79
2023-04-22T07:42:56.097Z,78.5
2023-04-22T07:44:02.499Z,78
2023-04-22T07:45:08.712Z,78.5
2023-04-22T07:46:15.051Z,78.5
2023-04-22T07:47:21.322Z,76.5
2023-04-22T07:48:27.583Z,77
2023-04-22T07:49:33.726Z,78.5
2023-04-22T07:50:39.987Z,76
2023-04-22T07:51:46.313Z,75
2023-04-22T07:52:52.599Z,76.5
2023-04-22T07:53:58.899Z,77.5
2023-04-22T07:55:05.134Z,76.5
2023-04-22T07:56:11.414Z,75
2023-04-22T07:57:16.683Z,74
2023-04-22T07:58:22.923Z,74.5
2023-04-22T07:59:29.225Z,74.5
2023-04-22T08:00:35.468Z,74.5
2023-04-22T08:01:41.825Z,75.5
2023-04-22T08:02:47.997Z,73.5
2023-04-22T08:03:54.332Z,73.5
2023-04-22T08:04:59.574Z,72.5
2023-04-22T08:06:04.928Z,72
2023-04-22T08:07:10.191Z,72
2023-04-22T08:08:15.497Z,73
2023-04-22T08:09:20.881Z,73
2023-04-22T08:10:26.154Z,71
2023-04-22T08:11:32.360Z,69.5
2023-04-22T08:12:38.605Z,72
2023-04-22T08:13:44.898Z,72.5
2023-04-22T08:14:51.326Z,71.5
2023-04-22T08:15:57.540Z,70
2023-04-22T08:17:03.718Z,69.5
2023-04-22T08:18:09.946Z,70
2023-04-22T08:19:16.374Z,71
2023-04-22T08:20:22.517Z,69
2023-04-22T08:21:28.860Z,71
2023-04-22T08:22:35.028Z,69.5
2023-04-22T08:23:41.307Z,68.5
2023-04-22T08:24:46.593Z,68
2023-04-22T08:25:52.902Z,68.5
2023-04-22T08:26:59.137Z,67.5
2023-04-22T08:28:05.436Z,67.5
2023-04-22T08:29:11.764Z,67.5
2023-04-22T08:30:18.055Z,67.5
2023-04-22T08:31:24.226Z,67
2023-04-22T08:32:29.637Z,68.5
2023-04-22T08:33:34.820Z,65.5
2023-04-22T08:34:40.279Z,65.5
2023-04-22T08:35:45.493Z,66
2023-04-22T08:36:51.670Z,63.5
2023-04-22T08:37:58.025Z,64
2023-04-22T08:39:04.251Z,64.5
2023-04-22T08:40:10.484Z,63.5
2023-04-22T08:41:16.787Z,63
2023-04-22T08:42:23.030Z,60
2023-04-22T08:43:29.299Z,60
2023-04-22T08:44:35.578Z,62
2023-04-22T08:45:41.942Z,60
2023-04-22T08:46:48.112Z,63
2023-04-22T08:47:54.506Z,62.5
2023-04-22T08:49:00.704Z,61
2023-04-22T08:50:06.034Z,61
2023-04-22T08:51:12.339Z,63
2023-04-22T08:52:18.512Z,63.5
2023-04-22T08:53:24.794Z,63.5
2023-04-22T08:54:31.032Z,62
2023-04-22T08:55:37.376Z,62.5
2023-04-22T08:56:43.586Z,63.5
2023-04-22T08:57:48.881Z,63
2023-04-22T08:58:54.165Z,63
2023-04-22T08:59:59.521Z,62.5
2023-04-22T09:01:04.755Z,62.5
2023-04-22T09:02:11.082Z,63
2023-04-22T09:03:17.308Z,62.5
2023-04-22T09:04:23.570Z,62
2023-04-22T09:05:29.881Z,61.5
2023-04-22T09:06:36.108Z,61
2023-04-22T09:07:42.384Z,62
2023-04-22T09:08:48.652Z,60.5
2023-04-22T09:09:55.020Z,60
2023-04-22T09:11:01.286Z,61
2023-04-22T09:12:07.478Z,62
2023-04-22T09:13:13.935Z,64
2023-04-22T09:14:20.180Z,63.5
2023-04-22T09:15:25.448Z,63
2023-04-22T09:16:31.745Z,61.5
2023-04-22T09:17:37.921Z,61.5
2023-04-22T09:18:44.113Z,61.5
2023-04-22T09:19:50.573Z,61.5
2023-04-22T09:20:56.663Z,62.5
2023-04-22T09:22:03.010Z,59
2023-04-22T09:23:08.331Z,59.5
2023-04-22T09:24:13.590Z,59
2023-04-22T09:25:18.908Z,60.5
2023-04-22T09:26:24.209Z,60
2023-04-22T09:27:30.488Z,62.5
2023-04-22T09:28:36.797Z,63.5
2023-04-22T09:29:42.921Z,63
2023-04-22T09:30:49.346Z,62
2023-04-22T09:31:55.495Z,61
2023-04-22T09:33:01.970Z,60
2023-04-22T09:34:08.202Z,60.5
2023-04-22T09:35:14.279Z,61
2023-04-22T09:36:20.720Z,60
2023-04-22T09:37:26.945Z,58.5
2023-04-22T09:38:33.219Z,58
2023-04-22T09:39:39.543Z,57.5
2023-04-22T09:40:44.712Z,58
2023-04-22T09:41:51.006Z,58
2023-04-22T09:42:57.221Z,60
2023-04-22T09:44:03.642Z,60
2023-04-22T09:45:09.839Z,59.5
2023-04-22T09:46:16.004Z,60
2023-04-22T09:47:22.339Z,57.5
2023-04-22T09:48:27.729Z,58.5
2023-04-22T09:49:33.021Z,59.5
2023-04-22T09:50:38.344Z,60
2023-04-22T09:51:43.459Z,61
2023-04-22T09:52:49.745Z,59
2023-04-22T09:53:55.995Z,57.5
2023-04-22T09:55:02.267Z,56
2023-04-22T09:56:08.610Z,55.5
2023-04-22T09:57:14.948Z,54.5
2023-04-22T09:58:21.236Z,55
2023-04-22T09:59:27.442Z,55.5
2023-04-22T10:00:33.695Z,55
2023-04-22T10:01:40.066Z,54.5
2023-04-22T10:02:46.186Z,55
2023-04-22T10:03:52.573Z,53.5
2023-04-22T10:04:58.721Z,53
2023-04-22T10:06:05.065Z,54
2023-04-22T10:07:10.333Z,52
2023-04-22T10:08:16.632Z,52
2023-04-22T10:09:22.877Z,52
2023-04-22T10:10:29.133Z,52.5
2023-04-22T10:11:35.373Z,51
2023-04-22T10:12:41.647Z,54
2023-04-22T10:13:47.021Z,52.5
2023-04-22T10:14:52.257Z,53
2023-04-22T10:15:58.561Z,50
2023-04-22T10:17:03.870Z,50
2023-04-22T10:18:09.085Z,50.5
2023-04-22T10:19:15.350Z,48.5
2023-04-22T10:20:21.622Z,48.5
2023-04-22T10:21:27.906Z,49
2023-04-22T10:22:34.172Z,50
2023-04-22T10:23:40.463Z,49
2023-04-22T10:24:46.713Z,48
2023-04-22T10:25:53.093Z,49
2023-04-22T10:26:59.303Z,50
2023-04-22T10:28:05.593Z,49
2023-04-22T10:29:11.837Z,50
2023-04-22T10:30:18.065Z,48.5
2023-04-22T10:31:24.345Z,47
2023-04-22T10:32:29.643Z,48.5
2023-04-22T10:33:35.899Z,50.5
2023-04-22T10:34:42.210Z,47.5
2023-04-22T10:35:48.447Z,47.5
2023-04-22T10:36:54.784Z,51
2023-04-22T10:38:00.988Z,49.5
2023-04-22T10:39:07.372Z,50
2023-04-22T10:40:12.560Z,49.5
2023-04-22T10:41:17.852Z,49
2023-04-22T10:42:24.112Z,48
2023-04-22T10:43:29.489Z,47
2023-04-22T10:44:34.770Z,44.5
2023-04-22T10:45:40.976Z,46.5
2023-04-22T10:46:47.287Z,48.5
2023-04-22T10:47:53.599Z,49
2023-04-22T10:48:59.792Z,49
2023-04-22T10:50:06.092Z,46
2023-04-22T10:51:12.364Z,46.5
2023-04-22T10:52:18.692Z,47
2023-04-22T10:53:24.881Z,46.5
2023-04-22T10:54:31.159Z,47
2023-04-22T10:55:37.434Z,49
2023-04-22T10:56:42.739Z,47.5
2023-04-22T10:57:49.044Z,50.5
2023-04-22T10:58:55.279Z,50.5
2023-04-22T11:00:01.606Z,51.5
2023-04-22T11:01:08.008Z,52
2023-04-22T11:02:14.077Z,52.5
2023-04-22T11:03:20.370Z,50
2023-04-22T11:04:26.672Z,50
2023-04-22T11:05:33.070Z,50
2023-04-22T11:06:38.251Z,49
2023-04-22T11:07:43.630Z,49
2023-04-22T11:08:48.923Z,49.5
2023-04-22T11:09:54.086Z,48.5
2023-04-22T11:11:00.426Z,49
2023-04-22T11:12:06.602Z,48.5
2023-04-22T11:13:12.893Z,49.5
2023-04-22T11:14:19.262Z,47.5
2023-04-22T11:15:25.430Z,47
2023-04-22T11:16:31.836Z,47.5
2023-04-22T11:17:37.986Z,47.5
2023-04-22T11:18:44.280Z,50
2023-04-22T11:19:50.549Z,48.5
2023-04-22T11:20:56.841Z,48.5
2023-04-22T11:22:03.088Z,47
2023-04-22T11:23:09.335Z,46.5
2023-04-22T11:24:14.628Z,45.5
2023-04-22T11:25:20.937Z,46.5
2023-04-22T11:26:27.247Z,48.5
2023-04-22T11:27:33.686Z,48
2023-04-22T11:28:39.769Z,47.5
2023-04-22T11:29:45.985Z,46.5
2023-04-22T11:30:52.297Z,47
2023-04-22T11:31:57.561Z,46
2023-04-22T11:33:02.902Z,46
2023-04-22T11:34:08.146Z,46.5
2023-04-22T11:35:13.499Z,47
2023-04-22T11:36:19.700Z,46
2023-04-22T11:37:25.965Z,46
2023-04-22T11:38:32.345Z,48
2023-04-22T11:39:38.520Z,47
2023-04-22T11:40:44.781Z,47.5
2023-04-22T11:41:51.125Z,46.5
2023-04-22T11:42:57.387Z,46.5
2023-04-22T11:44:03.726Z,47.5
2023-04-22T11:45:10.017Z,45.5
2023-04-22T11:46:16.293Z,46.5
2023-04-22T11:47:22.513Z,41.5
2023-04-22T11:48:28.808Z,44.5
2023-04-22T11:49:33.981Z,46.5
2023-04-22T11:50:40.435Z,47.5
2023-04-22T11:51:46.643Z,45.5
2023-04-22T11:52:52.889Z,48
2023-04-22T11:53:59.208Z,44
2023-04-22T11:55:05.347Z,44
2023-04-22T11:56:11.660Z,47
2023-04-22T11:57:17.063Z,42.5
2023-04-22T11:58:22.382Z,45
2023-04-22T11:59:28.575Z,47
2023-04-22T12:00:33.812Z,45.5
2023-04-22T12:01:39.136Z,45
2023-04-22T12:02:45.499Z,45
2023-04-22T12:03:51.688Z,44.5
2023-04-22T12:04:57.947Z,45
2023-04-22T12:06:04.383Z,43.5
2023-04-22T12:07:10.560Z,45
2023-04-22T12:08:16.832Z,44
2023-04-22T12:09:23.065Z,44
2023-04-22T12:10:29.241Z,44.5
2023-04-22T12:11:35.697Z,42.5
2023-04-22T12:12:41.781Z,44
2023-04-22T12:13:48.103Z,42.5
2023-04-22T12:14:54.320Z,41.5
2023-04-22T12:15:59.606Z,40
2023-04-22T12:17:05.888Z,40.5
2023-04-22T12:18:12.160Z,40.5
2023-04-22T12:19:18.472Z,41
2023-04-22T12:20:24.694Z,39.5
2023-04-22T12:21:30.966Z,43
2023-04-22T12:22:37.241Z,41
2023-04-22T12:23:43.514Z,39.5
2023-04-22T12:24:49.887Z,39.5
2023-04-22T12:25:56.124Z,41.5
2023-04-22T12:27:02.409Z,39.5
2023-04-22T12:28:08.788Z,39.5
2023-04-22T12:29:14.982Z,41.5
2023-04-22T12:30:20.169Z,42.5
2023-04-22T12:31:26.459Z,45.5
2023-04-22T12:32:32.761Z,43.5
2023-04-22T12:33:39.094Z,42
2023-04-22T12:34:45.268Z,44
2023-04-22T12:35:51.544Z,41.5
2023-04-22T12:36:57.811Z,41
2023-04-22T12:38:04.063Z,38.5
2023-04-22T12:39:10.586Z,40.5
2023-04-22T12:40:16.639Z,39.5
2023-04-22T12:41:23.039Z,38
2023-04-22T12:42:29.277Z,39
2023-04-22T12:43:35.509Z,39.5
2023-04-22T12:44:40.748Z,40
2023-04-22T12:45:47.007Z,37
2023-04-22T12:46:53.267Z,38
2023-04-22T12:47:58.558Z,42
2023-04-22T12:49:03.999Z,41.5
2023-04-22T12:50:09.238Z,45
2023-04-22T12:51:14.498Z,40
2023-04-22T12:52:20.740Z,40
2023-04-22T12:53:27.060Z,41
2023-04-22T12:54:33.240Z,41
2023-04-22T12:55:39.536Z,41
2023-04-22T12:56:45.795Z,40
2023-04-22T12:57:52.063Z,39
2023-04-22T12:58:58.336Z,38
2023-04-22T13:00:04.611Z,42.5
2023-04-22T13:01:10.944Z,37
2023-04-22T13:02:17.151Z,37
2023-04-22T13:03:23.425Z,38
2023-04-22T13:04:29.749Z,39
2023-04-22T13:05:34.987Z,39
2023-04-22T13:06:41.307Z,37.5
2023-04-22T13:07:47.530Z,37.5
2023-04-22T13:08:54.022Z,38.5
2023-04-22T13:10:00.086Z,36.5
2023-04-22T13:11:06.402Z,40
2023-04-22T13:12:12.611Z,38.5
2023-04-22T13:13:18.918Z,36.5
2023-04-22T13:14:25.237Z,39
2023-04-22T13:15:31.460Z,37.5
2023-04-22T13:16:37.713Z,37.5
2023-04-22T13:17:43.973Z,40
2023-04-22T13:18:50.264Z,38
2023-04-22T13:19:55.529Z,40.5
2023-04-22T13:21:01.895Z,39.5
2023-04-22T13:22:08.076Z,39
2023-04-22T13:23:14.427Z,39
2023-04-22T13:24:20.755Z,40
2023-04-22T13:25:26.903Z,40
2023-04-22T13:26:33.215Z,36.5
2023-04-22T13:27:39.442Z,39
2023-04-22T13:28:45.793Z,38
2023-04-22T13:29:51.004Z,36.5
2023-04-22T13:30:56.295Z,36
2023-04-22T13:32:01.632Z,38.5
2023-04-22T13:33:07.009Z,37
2023-04-22T13:34:13.237Z,38
2023-04-22T13:35:19.428Z,35.5
2023-04-22T13:36:25.693Z,36
2023-04-22T13:37:31.978Z,37
2023-04-22T13:38:38.236Z,40
2023-04-22T13:39:44.577Z,36
2023-04-22T13:40:50.949Z,36
2023-04-22T13:41:57.074Z,45
2023-04-22T13:43:03.393Z,37.5
2023-04-22T13:44:09.607Z,38
2023-04-22T13:45:15.867Z,38.5
2023-04-22T13:46:22.225Z,40
2023-04-22T13:47:27.484Z,38.5
2023-04-22T13:48:33.723Z,37
2023-04-22T13:49:40.014Z,35.5
2023-04-22T13:50:46.450Z,38.5
2023-04-22T13:51:52.637Z,38.5
2023-04-22T13:52:58.796Z,39
2023-04-22T13:54:05.091Z,37.5
2023-04-22T13:55:10.450Z,38.5
2023-04-22T13:56:15.806Z,39.5
2023-04-22T13:57:20.970Z,34.5
2023-04-22T13:58:26.282Z,39.5
2023-04-22T13:59:32.603Z,39
2023-04-22T14:00:38.880Z,40.5
2023-04-22T14:01:45.064Z,37
2023-04-22T14:02:51.345Z,35.5
2023-04-22T14:03:57.669Z,37
2023-04-22T14:05:03.920Z,42
2023-04-22T14:06:10.217Z,38
2023-04-22T14:07:16.416Z,41
2023-04-22T14:08:22.829Z,41.5
2023-04-22T14:09:29.066Z,35
2023-04-22T14:10:35.230Z,39
2023-04-22T14:11:41.515Z,42
2023-04-22T14:12:46.942Z,41.5
2023-04-22T14:13:53.124Z,41
2023-04-22T14:14:59.415Z,39
2023-04-22T14:16:05.695Z,40
2023-04-22T14:17:11.895Z,39
2023-04-22T14:18:18.150Z,37.5
2023-04-22T14:19:24.467Z,36.5
2023-04-22T14:20:29.835Z,37.5
2023-04-22T14:21:35.026Z,35.5
2023-04-22T14:22:40.298Z,39.5
2023-04-22T14:23:45.598Z,38.5
2023-04-22T14:24:51.866Z,37.5
2023-04-22T14:25:58.230Z,36
2023-04-22T14:27:04.409Z,36
2023-04-22T14:28:10.765Z,39
2023-04-22T14:29:16.952Z,39.5
2023-04-22T14:30:23.224Z,37
2023-04-22T14:31:29.501Z,36
2023-04-22T14:32:35.788Z,35
2023-04-22T14:33:42.035Z,35.5
2023-04-22T14:34:48.304Z,36
2023-04-22T14:35:54.584Z,36.5
2023-04-22T14:37:00.857Z,37
2023-04-22T14:38:06.219Z,36
2023-04-22T14:39:12.521Z,36.5
2023-04-22T14:40:18.686Z,36.5
2023-04-22T14:41:24.969Z,36.5
2023-04-22T14:42:31.241Z,36.5
2023-04-22T14:43:37.513Z,37
2023-04-22T14:44:43.788Z,37
2023-04-22T14:45:49.073Z,38.5
2023-04-22T14:46:54.378Z,38.5
2023-04-22T14:48:00.665Z,39.5
2023-04-22T14:49:06.907Z,38
2023-04-22T14:50:13.197Z,37.5
2023-04-22T14:51:19.452Z,37
2023-04-22T14:52:25.766Z,40
2023-04-22T14:53:31.989Z,40.5
2023-04-22T14:54:38.280Z,38.5
2023-04-22T14:55:44.537Z,40
2023-04-22T14:56:50.828Z,40.5
2023-04-22T14:57:57.080Z,44.5
2023-04-22T14:59:03.366Z,39
2023-04-22T15:00:09.632Z,41.5
2023-04-22T15:01:14.912Z,38.5
2023-04-22T15:02:21.326Z,43.5
2023-04-22T15:03:27.455Z,39
2023-04-22T15:04:33.787Z,38.5
2023-04-22T15:05:40.008Z,41
2023-04-22T15:06:46.273Z,39
2023-04-22T15:07:52.549Z,39
2023-04-22T15:08:57.842Z,40
2023-04-22T15:10:03.142Z,41
2023-04-22T15:11:08.500Z,46.5
2023-04-22T15:12:13.733Z,42.5